Lac-Au-Saumon, Canada
Current Conditions -  °F | °C
As of 5:00 PM on Monday 26 Jan 2015 (Local Time) from CYYY Reporting Station
Snow Showers Snow Showers  
Wind Chill: -10°   Ceiling: 2500
Heat Index:   Visibility: 10mi
Dew Point: -4°   Wind: 6mph
Humidity: 78%   Direction: 200°SSW
Pressure: 30.29"   Gusts: NA
Location:  48.42°N, 67.33°W
Report Text: CYYY 262200Z 20005KT 10SM -SHSN BKN025 M17/M20 A3029 RMK SC5 SLP262
Loading
Personal Weather Stations






























Interactive Weather Map New forecast layout! Learn more

10-Day Weather Forecast

Advertisements
Track Severe Weather on mobile